Augusta, GA

7:23 PM EDT on September 04, 2015 (GMT -0400)
EWARN00001 | | Change Station
CLOSE
Current Station
Personal Weather Station
Location: Augusta, GA
Elevation: 377 ft
Nearby Weather Stations

Elev 377 ft 33.47 °N, 82.08 °W | Updated 1 second ago

Clear
Clear
88.0 °F
Feels Like 93 °F
N
0.0
Wind Variable Wind from North

Today
High -- | Low -- °F
--% Chance of Precip.
Yesterday
High -- | Low -- °F
Precip. -- in
7:04 AM 7:49 PM
Waning Gibbous, 55% visible
Pressure 29.95 in
Visibility 10.0 miles
Clouds Clear
Heat Index 93 °F
Dew Point 70 °F
Humidity 55%
Rainfall Not available.
Snow Depth Not available.
UV 1 out of 12
Pollen 8.80 out of 12
Air Quality Not available.
Flu Activity Not available.
METAR KDNL 042253Z AUTO 17005KT 10SM CLR 31/21 A2997 RMK AO2 SLP142 T03060211
Pressure 29.95 in
Visibility 10.0 miles
Clouds Clear
Heat Index 93 °F
Dew Point 70 °F
Humidity 55%
Rainfall Not available.
Snow Depth Not available.
UV 1 out of 12
Pollen 8.80 out of 12
Air Quality Not available.
Flu Activity Not available.
METAR KDNL 042253Z AUTO 17005KT 10SM CLR 31/21 A2997 RMK AO2 SLP142 T03060211

10-Day Weather Forecast

×

Almanac

Astronomy

Sep. 04, 2015 Rise Set
Actual Time
Civil Twilight
Nautical Twilight
Astronomical Twilight
Moon
Length of Visible Light
Length of Day
Tomorrow will be .
, % of the Moon is Illuminated

Today's Extremes

State Highs State Lows

Community

WunderPhotos

Upload Photos

1,852,332 photos uploaded!

WunderBlogs® & News

Nearby

Air Quality

  Air Quality AQ Index Pollutant
Not available.

Snow Depth

Station Depth Elevation

Earthquake Activity

City Distance Mag. Time & Date
Minimum magnitude displayed is 2.5.

Coastal Water Temperatures

Place Temperature

Stations

Nearby Weather Stations

Station Location Temp. Windchill Dew Point Humidity Wind Precip. Elev Updated Type